Time;durP1;ratioP1;P1;durP2;ratioP2;P2;SDS_P1;SDS_P2;PMS_P1;PMS_P2;Temp;Humidity;BMP_temperature;BMP_pressure;BME280_temperature;BME280_humidity;BME280_pressure;Samples;Min_cycle;Max_cycle;Signal;HPM_P1;HPM_P2
2022/10/27 00:01:39;;;;;;;6.45;2.95;;;;;;;15.48;73.61;102044.53;5043345;28;20025;-74
2022/10/27 00:04:05;;;;;;;10.57;3.03;;;;;;;15.42;73.49;102057.63;5050884;28;20033;-74
2022/10/27 00:06:30;;;;;;;4.18;2.60;;;;;;;15.39;73.30;102051.69;5051911;28;20033;-70
2022/10/27 00:08:55;;;;;;;8.93;2.83;;;;;;;15.39;73.08;102052.53;5040764;28;20060;-73
2022/10/27 00:11:21;;;;;;;5.15;2.55;;;;;;;15.34;73.26;102055.25;5042435;28;20052;-74
2022/10/27 00:13:46;;;;;;;5.97;2.72;;;;;;;15.32;73.04;102053.81;5041211;28;20515;-74
2022/10/27 00:16:17;;;;;;;6.40;3.10;;;;;;;15.25;73.21;102056.81;5030677;28;20716;-74
2022/10/27 00:18:43;;;;;;;7.80;2.90;;;;;;;15.22;73.15;102057.31;5035490;28;20055;-72
2022/10/27 00:21:15;;;;;;;4.97;3.00;;;;;;;15.25;73.23;102056.81;5034325;28;20049;-73
2022/10/27 00:23:41;;;;;;;5.67;2.67;;;;;;;15.22;72.99;102054.50;5027705;28;20519;-73
2022/10/27 00:26:09;;;;;;;7.97;3.10;;;;;;;15.17;72.98;102060.88;5029328;28;20029;-73
2022/10/27 00:28:34;;;;;;;6.53;2.97;;;;;;;15.14;73.08;102061.38;5026560;28;20037;-73
2022/10/27 00:31:05;;;;;;;6.22;2.67;;;;;;;15.15;73.36;102063.06;5029804;28;20779;-73
2022/10/27 00:33:33;;;;;;;4.90;2.72;;;;;;;15.11;73.27;102059.09;5026936;28;20055;-73
2022/10/27 00:36:06;;;;;;;7.32;2.90;;;;;;;15.09;73.49;102069.69;5039866;28;20041;-74
2022/10/27 00:38:32;;;;;;;6.78;2.92;;;;;;;15.10;73.50;102062.16;5040121;28;20025;-74
2022/10/27 00:40:58;;;;;;;7.05;3.28;;;;;;;15.05;73.22;102062.91;5030068;28;20036;-73
2022/10/27 00:43:26;;;;;;;7.47;3.05;;;;;;;15.04;73.57;102066.78;5045210;28;20040;-74
2022/10/27 00:45:52;;;;;;;9.20;3.30;;;;;;;15.05;73.22;102064.84;5049529;28;20086;-73
2022/10/27 00:48:18;;;;;;;6.93;3.13;;;;;;;15.02;73.50;102074.59;5039618;28;20042;-73
2022/10/27 00:50:44;;;;;;;5.68;2.90;;;;;;;15.02;73.19;102080.19;5027335;28;20032;-73
2022/10/27 00:53:10;;;;;;;7.50;2.97;;;;;;;15.04;73.40;102077.97;5028546;28;20087;-73
2022/10/27 00:55:38;;;;;;;8.45;3.00;;;;;;;15.06;74.12;102077.75;5034146;28;20025;-73
2022/10/27 00:58:13;;;;;;;6.60;2.70;;;;;;;15.08;74.70;102084.75;5046886;28;20125;-73
2022/10/27 01:00:40;;;;;;;4.38;2.55;;;;;;;15.12;75.39;102077.56;5028476;28;20040;-75
2022/10/27 01:03:09;;;;;;;4.30;2.60;;;;;;;15.11;76.15;102078.66;5037239;28;20123;-75
2022/10/27 01:05:34;;;;;;;7.13;2.78;;;;;;;15.12;75.56;102076.72;5043657;28;20036;-75
2022/10/27 01:08:02;;;;;;;8.98;2.88;;;;;;;15.15;76.69;102073.41;5051886;28;20025;-75
2022/10/27 01:10:28;;;;;;;11.70;2.90;;;;;;;15.17;76.30;102074.88;5047575;28;20105;-75
2022/10/27 01:12:57;;;;;;;8.40;2.90;;;;;;;15.16;76.92;102077.91;5043357;28;20025;-75
2022/10/27 01:15:48;;;;;;;6.47;2.83;;;;;;;15.20;76.77;102081.88;5031073;28;20723;-75
2022/10/27 01:18:24;;;;;;;9.57;3.10;;;;;;;15.26;77.31;102080.88;5027684;28;20055;-75
2022/10/27 01:21:14;;;;;;;11.07;2.65;;;;;;;15.28;77.06;102086.19;5029831;28;20033;-75
2022/10/27 01:24:05;;;;;;;12.60;3.22;;;;;;;15.34;76.88;102088.84;5043777;28;20094;-75
2022/10/27 01:26:42;;;;;;;9.70;3.10;;;;;;;15.37;76.79;102082.75;5044471;28;20599;-75
2022/10/27 01:29:19;;;;;;;6.20;2.67;;;;;;;15.36;77.17;102088.56;5031922;28;20112;-75
2022/10/27 01:31:55;;;;;;;6.18;2.60;;;;;;;15.34;77.17;102083.25;5036468;28;20030;-76
2022/10/27 01:34:34;;;;;;;6.75;2.63;;;;;;;15.37;77.29;102088.34;5035530;28;20076;-76
2022/10/27 01:36:59;;;;;;;6.05;2.90;;;;;;;15.35;77.21;102078.50;5031769;28;20064;-76
2022/10/27 01:39:33;;;;;;;13.20;2.95;;;;;;;15.38;77.56;102091.97;5044091;28;20061;-76
2022/10/27 01:42:33;;;;;;;9.57;3.38;;;;;;;15.43;76.89;102092.88;5044679;28;20478;-75
2022/10/27 01:45:01;;;;;;;6.70;2.90;;;;;;;15.38;77.59;102095.63;5035898;28;20131;-76
2022/10/27 01:47:28;;;;;;;7.80;2.90;;;;;;;15.38;77.36;102091.97;5048308;28;20032;-76
2022/10/27 01:49:53;;;;;;;6.18;2.83;;;;;;;15.38;76.98;102090.03;5051449;28;20029;-76
2022/10/27 01:52:48;;;;;;;6.72;2.85;;;;;;;15.43;77.14;102086.44;5031725;28;20495;-76
2022/10/27 01:55:37;;;;;;;6.38;2.90;;;;;;;15.43;76.93;102087.28;5031917;28;20552;-76
2022/10/27 01:58:19;;;;;;;6.38;2.90;;;;;;;15.39;77.20;102080.50;5045336;28;20384;-76
2022/10/27 02:00:59;;;;;;;9.48;3.20;;;;;;;15.42;76.98;102084.75;5055320;28;20036;-75
2022/10/27 02:03:40;;;;;;;6.57;2.80;;;;;;;15.42;77.19;102082.81;5031048;28;20029;-76
2022/10/27 02:06:23;;;;;;;7.88;2.97;;;;;;;15.40;77.04;102081.34;5031311;28;20034;-76
2022/10/27 02:08:57;;;;;;;6.15;2.88;;;;;;;15.37;77.17;102073.50;5041694;28;20079;-76
2022/10/27 02:11:22;;;;;;;9.68;3.17;;;;;;;15.39;77.02;102074.91;5035829;28;20048;-75
2022/10/27 02:13:48;;;;;;;10.52;3.30;;;;;;;15.41;77.00;102083.06;5031051;28;20021;-76
2022/10/27 02:16:21;;;;;;;7.10;2.95;;;;;;;15.39;77.03;102077.72;5042381;28;20052;-76
2022/10/27 02:19:04;;;;;;;9.10;3.03;;;;;;;15.39;77.00;102074.06;5046281;28;20022;-76
2022/10/27 02:21:34;;;;;;;6.18;3.03;;;;;;;15.32;77.02;102070.59;5054788;28;20037;-76
2022/10/27 02:23:59;;;;;;;6.82;2.90;;;;;;;15.33;76.51;102069.53;5046525;28;20028;-76
2022/10/27 02:26:33;;;;;;;5.15;2.70;;;;;;;15.31;76.61;102064.16;5033130;28;20435;-76
2022/10/27 02:29:08;;;;;;;7.75;3.22;;;;;;;15.32;76.61;102063.06;5046242;28;20071;-76
2022/10/27 02:31:37;;;;;;;8.70;2.97;;;;;;;15.31;76.47;102066.13;5040041;28;20340;-76
2022/10/27 02:34:03;;;;;;;7.03;2.90;;;;;;;15.29;76.61;102069.19;5040691;28;20053;-76
2022/10/27 02:36:29;;;;;;;5.07;2.95;;;;;;;15.25;76.46;102067.13;5052805;28;20440;-76
2022/10/27 02:38:55;;;;;;;9.20;3.05;;;;;;;15.24;76.35;102063.47;5054104;28;20044;-76
2022/10/27 02:41:20;;;;;;;6.20;3.13;;;;;;;15.21;75.61;102064.00;5048055;28;20106;-76
2022/10/27 02:43:45;;;;;;;6.68;2.83;;;;;;;15.22;76.35;102068.50;5038481;28;20060;-76
2022/10/27 02:46:11;;;;;;;4.60;2.90;;;;;;;15.22;75.75;102063.75;5035862;28;20431;-76
2022/10/27 02:48:36;;;;;;;5.47;2.63;;;;;;;15.19;76.48;102069.84;5041415;28;20037;-76
2022/10/27 02:51:01;;;;;;;7.15;3.42;;;;;;;15.18;76.73;102061.72;5033922;28;20029;-77
2022/10/27 02:53:26;;;;;;;8.90;2.90;;;;;;;15.16;76.94;102052.72;5049717;28;20032;-77
2022/10/27 02:55:52;;;;;;;8.70;3.30;;;;;;;15.19;77.01;102060.63;5063923;28;20029;-76
2022/10/27 02:58:17;;;;;;;9.77;2.97;;;;;;;15.17;76.60;102051.66;5045930;28;20029;-77
2022/10/27 03:00:42;;;;;;;5.93;2.90;;;;;;;15.19;76.63;102049.44;5034903;28;20432;-77
2022/10/27 03:03:08;;;;;;;8.00;2.95;;;;;;;15.14;76.28;102050.19;5052363;28;20037;-77
2022/10/27 03:05:33;;;;;;;8.68;3.63;;;;;;;15.15;75.95;102051.03;5040181;28;20071;-77
2022/10/27 03:07:59;;;;;;;5.10;2.67;;;;;;;15.15;75.90;102043.50;5033549;28;20080;-76
2022/10/27 03:10:24;;;;;;;7.60;2.78;;;;;;;15.13;75.98;102047.63;5053142;28;20028;-76
2022/10/27 03:12:49;;;;;;;8.55;2.90;;;;;;;15.11;76.59;102039.50;5050659;28;20029;-76
2022/10/27 03:15:15;;;;;;;7.85;2.97;;;;;;;15.12;76.08;102034.75;5051779;28;21203;-76
2022/10/27 03:17:47;;;;;;;5.45;2.70;;;;;;;15.12;75.82;102017.97;5045100;28;20039;-76
2022/10/27 03:20:14;;;;;;;4.43;2.60;;;;;;;15.09;75.95;102024.94;5034284;28;20033;-76
2022/10/27 03:22:40;;;;;;;6.38;2.58;;;;;;;15.07;75.63;102023.50;5039693;28;20081;-76
2022/10/27 03:25:06;;;;;;;5.07;2.67;;;;;;;15.07;75.75;102026.28;5043959;28;20053;-76
2022/10/27 03:27:31;;;;;;;8.65;3.20;;;;;;;15.03;75.33;102020.38;5047738;28;20039;-76
2022/10/27 03:29:57;;;;;;;5.20;2.50;;;;;;;15.03;75.62;102020.38;5043404;28;20029;-76
2022/10/27 03:32:22;;;;;;;4.85;2.80;;;;;;;15.07;76.09;102024.34;5046670;28;20112;-76
2022/10/27 03:34:48;;;;;;;7.47;3.03;;;;;;;15.05;76.20;102020.09;5046218;28;20125;-76
2022/10/27 03:37:13;;;;;;;5.05;2.75;;;;;;;15.02;76.04;102020.63;5048090;28;20090;-76
2022/10/27 03:39:38;;;;;;;6.70;2.53;;;;;;;14.95;76.11;102031.97;5039081;28;20499;-76
2022/10/27 03:42:03;;;;;;;5.72;2.70;;;;;;;14.94;75.55;102016.31;5033319;28;20038;-76
2022/10/27 03:44:29;;;;;;;8.45;2.35;;;;;;;14.95;75.41;102018.84;5061573;28;20129;-76
2022/10/27 03:46:54;;;;;;;7.60;2.63;;;;;;;14.95;75.14;102018.00;5032816;28;20033;-76
2022/10/27 03:49:19;;;;;;;4.82;2.65;;;;;;;14.94;75.15;102016.31;5033549;28;20463;-76
2022/10/27 03:51:44;;;;;;;8.73;2.90;;;;;;;14.91;75.12;102014.84;5037643;28;20068;-76
2022/10/27 03:54:10;;;;;;;4.03;2.17;;;;;;;14.91;75.42;102008.44;5039466;28;20052;-76
2022/10/27 03:56:35;;;;;;;6.50;2.85;;;;;;;14.89;75.56;102008.66;5033076;28;20029;-76
2022/10/27 03:59:00;;;;;;;4.30;2.45;;;;;;;14.88;75.23;102012.56;5041132;28;20108;-76
2022/10/27 04:01:26;;;;;;;6.35;2.70;;;;;;;14.88;75.07;102006.13;5044310;28;20856;-75
2022/10/27 04:03:51;;;;;;;7.85;2.70;;;;;;;14.86;74.86;102006.41;5050796;28;20079;-75
2022/10/27 04:06:16;;;;;;;6.65;2.38;;;;;;;14.83;75.17;102014.44;5043358;28;20025;-75
2022/10/27 04:08:42;;;;;;;5.63;2.50;;;;;;;14.83;75.04;102009.69;5062692;28;20361;-75
2022/10/27 04:11:07;;;;;;;6.45;2.90;;;;;;;14.84;75.02;102014.19;5056796;28;20112;-76
2022/10/27 04:13:32;;;;;;;5.68;2.55;;;;;;;14.82;75.18;102019.19;5052849;28;20606;-75
2022/10/27 04:15:59;;;;;;;4.05;2.60;;;;;;;14.83;75.45;102023.66;5044028;28;20087;-75
2022/10/27 04:18:24;;;;;;;7.47;3.03;;;;;;;14.75;75.35;102024.09;5033033;28;20087;-74
2022/10/27 04:20:49;;;;;;;9.90;3.03;;;;;;;14.77;75.12;102033.06;5040850;28;20798;-76
2022/10/27 04:23:14;;;;;;;8.15;2.67;;;;;;;14.75;75.17;102031.63;5031451;28;20033;-75
2022/10/27 04:25:40;;;;;;;5.47;2.30;;;;;;;14.73;75.18;102031.88;5036068;28;20029;-77
2022/10/27 04:28:07;;;;;;;9.27;2.60;;;;;;;14.77;75.06;102032.22;5047730;28;20494;-77
2022/10/27 04:30:33;;;;;;;5.72;2.80;;;;;;;14.76;75.22;102039.75;5042892;28;20029;-76
2022/10/27 04:32:58;;;;;;;3.67;2.50;;;;;;;14.74;75.49;102039.16;5033804;28;20037;-74
2022/10/27 04:35:24;;;;;;;4.75;2.90;;;;;;;14.73;75.02;102038.28;5040462;28;20099;-74
2022/10/27 04:37:49;;;;;;;5.32;2.83;;;;;;;14.72;74.75;102032.97;5035227;28;20423;-77
2022/10/27 04:40:14;;;;;;;6.95;2.83;;;;;;;14.67;74.61;102030.09;5034647;28;20044;-74
2022/10/27 04:42:45;;;;;;;6.07;2.95;;;;;;;14.66;75.21;102039.59;5038065;28;20112;-76
2022/10/27 04:45:10;;;;;;;5.55;3.08;;;;;;;14.65;74.91;102029.47;5045368;28;20025;-74
2022/10/27 04:47:35;;;;;;;7.47;3.05;;;;;;;14.65;74.87;102035.06;5035663;28;20036;-75
2022/10/27 04:50:01;;;;;;;5.55;2.60;;;;;;;14.66;74.79;102031.19;5039810;28;20042;-75
2022/10/27 04:52:26;;;;;;;7.60;3.10;;;;;;;14.66;74.94;102031.19;5031717;28;20026;-75
2022/10/27 04:54:51;;;;;;;6.47;3.30;;;;;;;14.69;75.26;102036.25;5050235;28;20032;-72
2022/10/27 04:57:17;;;;;;;8.45;3.67;;;;;;;14.72;75.07;102035.75;5047051;28;20556;-73
2022/10/27 04:59:42;;;;;;;8.55;3.67;;;;;;;14.70;75.59;102038.81;5031506;28;20080;-77
2022/10/27 05:02:08;;;;;;;11.35;3.80;;;;;;;14.70;75.42;102037.97;5037765;28;20041;-76
2022/10/27 05:04:33;;;;;;;7.43;3.38;;;;;;;14.73;75.53;102031.88;5032096;28;20048;-77
2022/10/27 05:06:58;;;;;;;11.60;3.70;;;;;;;14.71;75.65;102034.06;5043705;28;20033;-77
2022/10/27 05:09:23;;;;;;;7.95;4.05;;;;;;;14.70;75.34;102041.63;5044759;28;20037;-74
2022/10/27 05:11:49;;;;;;;6.00;4.05;;;;;;;14.74;75.64;102033.56;5032280;28;20531;-75
2022/10/27 05:14:14;;;;;;;7.93;3.70;;;;;;;14.76;75.39;102028.56;5038177;28;20036;-76
2022/10/27 05:16:39;;;;;;;8.40;3.78;;;;;;;14.76;75.40;102042.53;5044465;28;20032;-76
2022/10/27 05:19:04;;;;;;;7.22;3.60;;;;;;;14.77;75.25;102038.63;5031636;28;20391;-75
2022/10/27 05:21:31;;;;;;;5.47;3.53;;;;;;;14.76;75.64;102036.94;5041992;28;20035;-75
2022/10/27 05:23:56;;;;;;;11.07;4.00;;;;;;;14.76;75.50;102036.09;5035583;28;20034;-75
2022/10/27 05:26:22;;;;;;;8.55;3.20;;;;;;;14.77;75.43;102032.22;5045138;28;20035;-74
2022/10/27 05:28:47;;;;;;;10.02;3.70;;;;;;;14.75;75.64;102031.63;5041900;28;20110;-73
2022/10/27 05:31:12;;;;;;;5.60;3.03;;;;;;;14.76;75.26;102031.38;5029323;28;20045;-72
2022/10/27 05:33:37;;;;;;;4.63;3.70;;;;;;;14.73;75.48;102026.28;5029295;28;20045;-73
2022/10/27 05:36:03;;;;;;;10.32;3.38;;;;;;;14.75;75.64;102029.69;5038812;28;20040;-73
2022/10/27 05:38:28;;;;;;;12.07;3.67;;;;;;;14.72;75.89;102031.03;5037016;28;20112;-75
2022/10/27 05:40:58;;;;;;;8.15;3.42;;;;;;;14.75;75.63;102028.84;5029923;28;20060;-72
2022/10/27 05:43:23;;;;;;;6.78;3.67;;;;;;;14.72;75.63;102022.63;5031092;28;20638;-75
2022/10/27 05:45:50;;;;;;;7.82;3.63;;;;;;;14.73;75.88;102027.13;5030185;28;20037;-71
2022/10/27 05:48:15;;;;;;;11.77;3.70;;;;;;;14.74;75.72;102022.41;5033128;28;20524;-74
2022/10/27 05:50:40;;;;;;;10.25;3.47;;;;;;;14.74;75.65;102019.59;5035904;28;20116;-72
2022/10/27 05:53:05;;;;;;;10.85;3.95;;;;;;;14.75;75.59;102024.09;5037269;28;20096;-73
2022/10/27 05:55:33;;;;;;;9.85;3.78;;;;;;;14.74;75.51;102016.81;5042790;28;20033;-73
2022/10/27 05:58:00;;;;;;;8.27;3.70;;;;;;;14.73;75.65;102017.88;5030680;28;20037;-73
2022/10/27 06:00:31;;;;;;;7.95;3.78;;;;;;;14.76;75.38;102022.13;5028736;28;20043;-74
2022/10/27 06:03:01;;;;;;;8.35;4.40;;;;;;;14.76;75.52;102028.56;5036167;28;20025;-74
2022/10/27 06:05:28;;;;;;;6.75;3.80;;;;;;;14.76;75.47;102016.53;5031517;28;20032;-71
2022/10/27 06:07:53;;;;;;;11.30;4.38;;;;;;;14.73;75.31;102015.09;5042399;28;20094;-71
2022/10/27 06:10:19;;;;;;;7.63;4.30;;;;;;;14.75;75.41;102004.53;5050297;28;20033;-69
2022/10/27 06:12:44;;;;;;;9.18;4.15;;;;;;;14.69;75.46;102017.53;5039059;28;20029;-71
2022/10/27 06:15:10;;;;;;;7.50;3.50;;;;;;;14.72;75.21;102011.44;5044869;28;20527;-72
2022/10/27 06:17:35;;;;;;;6.75;3.85;;;;;;;14.75;75.33;102018.50;5030084;28;20030;-72
2022/10/27 06:20:00;;;;;;;9.60;4.10;;;;;;;14.77;75.12;102009.84;5030053;28;20029;-73
2022/10/27 06:22:26;;;;;;;7.20;3.97;;;;;;;14.71;75.22;102012.56;5029854;28;20467;-74
2022/10/27 06:24:51;;;;;;;8.98;3.80;;;;;;;14.72;74.98;102007.81;5046981;28;20029;-72
2022/10/27 06:27:16;;;;;;;6.03;3.63;;;;;;;14.72;75.26;102003.06;5048558;28;20519;-73
2022/10/27 06:29:42;;;;;;;10.80;4.28;;;;;;;14.74;75.06;102014.03;5041270;28;20041;-73
2022/10/27 06:32:07;;;;;;;8.15;3.88;;;;;;;14.71;75.16;102009.78;5030901;28;20022;-71
2022/10/27 06:34:32;;;;;;;6.68;3.53;;;;;;;14.65;75.21;101999.59;5039404;28;20447;-72
2022/10/27 06:36:57;;;;;;;8.43;3.67;;;;;;;14.69;74.94;101997.97;5049060;28;20129;-70
2022/10/27 06:39:23;;;;;;;5.07;3.53;;;;;;;14.71;74.79;102000.53;5043020;28;20029;-71
2022/10/27 06:41:48;;;;;;;9.32;3.70;;;;;;;14.70;74.97;101998.84;5053529;28;20045;-72
2022/10/27 06:44:13;;;;;;;9.60;3.60;;;;;;;14.70;74.95;102002.50;5040312;28;20152;-73
2022/10/27 06:46:38;;;;;;;8.65;3.65;;;;;;;14.68;74.77;101990.69;5048569;28;20443;-72
2022/10/27 06:49:05;;;;;;;7.18;3.47;;;;;;;14.69;74.55;101997.97;5045433;28;20037;-73
2022/10/27 06:51:30;;;;;;;7.70;3.97;;;;;;;14.69;74.48;101991.53;5031237;28;20120;-73
2022/10/27 06:53:55;;;;;;;7.55;3.10;;;;;;;14.83;78.52;101990.13;5044056;28;20441;-73
2022/10/27 06:56:21;;;;;;;9.82;3.63;;;;;;;14.83;75.44;101983.69;5035898;28;20059;-74
2022/10/27 06:58:47;;;;;;;4.85;3.60;;;;;;;14.83;74.33;101986.50;5030627;28;20067;-66
2022/10/27 07:01:12;;;;;;;5.57;3.60;;;;;;;14.80;74.36;101985.03;5040863;28;20363;-74
2022/10/27 07:03:38;;;;;;;9.18;3.58;;;;;;;14.76;74.16;101981.06;5036094;28;20021;-72
2022/10/27 07:06:03;;;;;;;10.43;3.80;;;;;;;14.81;74.43;101988.69;5038418;28;20040;-69
2022/10/27 07:08:29;;;;;;;10.35;3.85;;;;;;;14.81;75.25;101989.53;5042742;28;20039;-76
2022/10/27 07:10:54;;;;;;;6.90;3.50;;;;;;;14.83;74.47;101987.31;5039134;28;20111;-75
2022/10/27 07:13:19;;;;;;;11.88;3.45;;;;;;;14.89;74.32;102002.22;5049527;28;20049;-74
2022/10/27 07:15:45;;;;;;;8.80;3.15;;;;;;;14.86;74.28;102002.75;5044296;28;20064;-74
2022/10/27 07:18:10;;;;;;;8.50;3.80;;;;;;;14.87;74.04;102004.44;5048724;28;20025;-74
2022/10/27 07:20:39;;;;;;;6.45;3.55;;;;;;;14.89;74.09;101999.44;5042286;28;20492;-73
2022/10/27 07:23:06;;;;;;;5.90;3.25;;;;;;;14.90;73.91;102003.94;5043520;28;20439;-75
2022/10/27 07:25:32;;;;;;;109.82;76.18;;;;;;;14.91;73.68;102000.88;5051668;28;20112;-76
2022/10/27 07:27:58;;;;;;;34.15;23.95;;;;;;;14.94;73.71;102003.19;5051987;28;20028;-75
2022/10/27 07:30:29;;;;;;;50.00;29.75;;;;;;;14.94;73.84;101994.78;5042896;28;20982;-75
2022/10/27 07:32:55;;;;;;;25.63;17.30;;;;;;;14.97;73.55;101988.69;5042710;28;20033;-72
2022/10/27 07:35:21;;;;;;;21.85;6.95;;;;;;;15.01;73.37;101988.16;5046169;28;20045;-66
2022/10/27 07:37:47;;;;;;;7.07;4.20;;;;;;;15.02;73.42;101990.72;5040282;28;20036;-75
2022/10/27 07:40:14;;;;;;;13.88;3.90;;;;;;;15.00;73.40;101990.13;5050494;28;20021;-73
2022/10/27 07:42:47;;;;;;;16.92;4.60;;;;;;;15.03;73.29;101991.56;5052455;28;20735;-74
2022/10/27 07:45:14;;;;;;;13.45;4.35;;;;;;;15.03;73.27;101998.00;5033546;28;20381;-72
2022/10/27 07:47:47;;;;;;;15.40;4.55;;;;;;;15.06;73.30;102000.28;5039200;28;20033;-73
2022/10/27 07:50:13;;;;;;;15.20;4.65;;;;;;;15.07;72.79;102003.94;5045517;28;20033;-73
2022/10/27 07:52:42;;;;;;;13.00;4.00;;;;;;;15.08;72.96;102005.63;5038415;28;20032;-63
2022/10/27 07:55:09;;;;;;;9.50;3.50;;;;;;;15.12;72.88;102015.19;5035792;28;20078;-63
2022/10/27 07:57:35;;;;;;;4.63;2.70;;;;;;;15.11;72.24;102011.53;5037328;28;20067;-63
2022/10/27 08:00:00;;;;;;;6.65;3.50;;;;;;;15.15;71.80;102006.28;5042618;28;20475;-64
2022/10/27 08:02:29;;;;;;;7.63;3.13;;;;;;;15.15;72.31;101998.75;5059222;28;20445;-63
2022/10/27 08:04:56;;;;;;;7.72;3.38;;;;;;;15.20;72.02;101990.41;5036534;28;20874;-64
2022/10/27 08:07:21;;;;;;;9.90;3.38;;;;;;;15.22;71.72;101990.19;5046651;28;20029;-64
2022/10/27 08:09:47;;;;;;;7.75;3.42;;;;;;;15.24;71.44;101987.97;5039175;28;20120;-65
2022/10/27 08:12:12;;;;;;;8.65;3.22;;;;;;;15.26;71.60;101985.78;5045698;28;20104;-63
2022/10/27 08:14:37;;;;;;;12.43;3.67;;;;;;;15.29;71.56;101996.44;5053786;28;20320;-63
2022/10/27 08:17:03;;;;;;;9.50;2.75;;;;;;;15.32;70.91;101995.91;5052673;28;20040;-63
2022/10/27 08:19:28;;;;;;;7.32;2.67;;;;;;;15.34;71.18;101988.13;5044115;28;20469;-63
2022/10/27 08:21:53;;;;;;;9.70;2.80;;;;;;;15.37;70.87;101976.44;5033877;28;20037;-63
2022/10/27 08:24:18;;;;;;;5.20;2.42;;;;;;;15.37;70.71;101970.84;5053139;28;20033;-63
2022/10/27 08:26:44;;;;;;;4.20;2.20;;;;;;;15.42;71.10;101984.03;5050793;28;20044;-63
2022/10/27 08:29:09;;;;;;;14.20;2.53;;;;;;;15.42;71.11;101984.88;5040571;28;20033;-64
2022/10/27 08:31:34;;;;;;;14.63;3.25;;;;;;;15.47;70.97;101982.16;5038077;28;20078;-63
2022/10/27 08:33:59;;;;;;;14.68;3.15;;;;;;;15.50;70.29;101979.94;5036079;28;20047;-63
2022/10/27 08:36:25;;;;;;;12.98;3.05;;;;;;;15.54;70.10;101981.97;5032397;28;20134;-63
2022/10/27 08:38:50;;;;;;;10.40;2.80;;;;;;;15.63;70.35;101994.41;5031850;28;20029;-63
2022/10/27 08:41:33;;;;;;;9.63;2.55;;;;;;;15.75;70.35;101982.25;5037516;28;20477;-63
2022/10/27 08:44:23;;;;;;;9.20;2.47;;;;;;;15.88;69.84;101973.50;5037104;28;20029;-63
2022/10/27 08:46:51;;;;;;;20.23;2.72;;;;;;;15.97;68.94;101973.88;5042451;28;20041;-63
2022/10/27 08:49:38;;;;;;;18.38;2.65;;;;;;;16.01;69.22;101970.28;5034225;28;20036;-63
2022/10/27 08:52:43;;;;;;;7.07;2.13;;;;;;;16.04;68.95;101968.91;5036343;28;20025;-63
2022/10/27 08:55:12;;;;;;;6.60;1.75;;;;;;;16.04;67.08;101958.56;5027093;28;20052;-63
2022/10/27 08:57:41;;;;;;;7.55;1.85;;;;;;;16.06;67.24;101958.28;5049011;28;20041;-63
2022/10/27 09:00:11;;;;;;;6.90;1.52;;;;;;;16.11;67.61;101953.59;5062081;28;20070;-63
2022/10/27 09:02:42;;;;;;;3.28;1.40;;;;;;;16.14;67.56;101938.19;5044089;28;20041;-63
2022/10/27 09:05:22;;;;;;;4.05;1.42;;;;;;;16.20;67.44;101939.97;5037154;28;20041;-64
2022/10/27 09:08:00;;;;;;;6.35;1.42;;;;;;;16.27;67.30;101934.13;5035220;28;20025;-64
2022/10/27 09:10:44;;;;;;;3.90;1.63;;;;;;;16.28;67.34;101931.06;5045034;28;20116;-64
2022/10/27 09:13:34;;;;;;;2.72;1.25;;;;;;;16.33;67.92;101939.53;5032195;28;20022;-64
2022/10/27 09:16:05;;;;;;;4.65;1.40;;;;;;;16.40;66.91;101934.56;5031459;28;20037;-64
2022/10/27 09:18:40;;;;;;;7.57;1.50;;;;;;;16.49;66.78;101925.66;5045987;28;20085;-64
2022/10/27 09:21:21;;;;;;;4.88;1.65;;;;;;;16.55;66.32;101938.63;5050968;28;20104;-64
2022/10/27 09:23:50;;;;;;;2.50;1.08;;;;;;;16.61;66.37;101937.53;5057360;28;20349;-64
2022/10/27 09:26:20;;;;;;;5.57;2.17;;;;;;;16.71;67.70;101934.81;5045762;28;20036;-61
2022/10/27 09:28:50;;;;;;;10.57;1.90;;;;;;;16.77;67.16;101930.97;5050169;28;20477;-62
2022/10/27 09:31:20;;;;;;;4.68;1.50;;;;;;;16.83;65.99;101921.50;5036638;28;20408;-62
2022/10/27 09:33:54;;;;;;;3.03;1.15;;;;;;;16.82;65.20;101919.81;5047301;28;20048;-63
2022/10/27 09:36:21;;;;;;;5.30;1.10;;;;;;;16.86;64.60;101918.16;5042686;28;20064;-63
2022/10/27 09:38:47;;;;;;;3.22;1.30;;;;;;;16.92;64.97;101925.47;5052518;28;20111;-63
2022/10/27 09:41:12;;;;;;;2.70;1.45;;;;;;;16.95;65.51;101917.66;5050578;28;20615;-63
2022/10/27 09:43:37;;;;;;;3.63;1.60;;;;;;;17.02;66.03;101921.91;5056580;28;20051;-63
2022/10/27 09:46:21;;;;;;;3.28;1.58;;;;;;;17.08;66.21;101911.53;5043287;28;20028;-63
2022/10/27 09:48:49;;;;;;;4.13;1.40;;;;;;;17.16;65.40;101905.41;5047242;28;20040;-63
2022/10/27 09:51:23;;;;;;;10.85;2.08;;;;;;;17.23;65.29;101908.00;5031602;28;20043;-63
2022/10/27 09:53:54;;;;;;;6.43;2.10;;;;;;;17.34;64.36;101910.59;5036069;28;20404;-62
2022/10/27 09:56:32;;;;;;;7.75;1.55;;;;;;;17.42;64.90;101909.22;5041229;28;20126;-62
2022/10/27 09:59:01;;;;;;;3.65;1.38;;;;;;;17.52;64.79;101908.41;5038458;28;20056;-62
2022/10/27 10:01:38;;;;;;;4.97;1.40;;;;;;;17.58;64.63;101913.78;5049990;28;20028;-64
2022/10/27 10:04:32;;;;;;;2.92;1.40;;;;;;;17.70;64.52;101915.50;5036155;28;20041;-64
2022/10/27 10:07:03;;;;;;;2.28;1.20;;;;;;;17.77;63.19;101907.72;5037305;28;20117;-63
2022/10/27 10:09:39;;;;;;;3.78;1.10;;;;;;;17.84;63.69;101908.25;5041779;28;20029;-63
2022/10/27 10:12:23;;;;;;;3.97;1.50;;;;;;;17.87;63.84;101891.72;5040522;28;20032;-61
2022/10/27 10:14:49;;;;;;;3.28;1.40;;;;;;;17.95;62.90;101886.66;5047261;28;20103;-62
2022/10/27 10:17:21;;;;;;;4.57;1.40;;;;;;;18.02;62.43;101878.81;5036888;28;20037;-61
2022/10/27 10:19:47;;;;;;;2.20;1.30;;;;;;;18.05;62.56;101881.09;5037217;28;20064;-62
2022/10/27 10:22:25;;;;;;;3.83;1.50;;;;;;;18.04;63.23;101888.69;5038634;28;20053;-62
2022/10/27 10:24:51;;;;;;;8.73;1.60;;;;;;;18.01;62.49;101885.56;5040693;28;20384;-62
2022/10/27 10:27:31;;;;;;;4.38;1.38;;;;;;;17.97;62.45;101879.66;5032381;28;20043;-62
2022/10/27 10:30:01;;;;;;;6.88;1.50;;;;;;;17.94;61.59;101885.00;5047638;28;20025;-64
2022/10/27 10:32:30;;;;;;;4.35;1.52;;;;;;;17.88;61.90;101892.53;5038861;28;20112;-64
2022/10/27 10:34:55;;;;;;;5.25;1.40;;;;;;;17.91;62.25;101894.81;5029665;28;20523;-64
2022/10/27 10:37:30;;;;;;;3.92;1.30;;;;;;;17.87;63.03;101886.09;5040377;28;20112;-65
2022/10/27 10:40:13;;;;;;;4.53;1.73;;;;;;;17.89;63.36;101886.66;5037788;28;20079;-64
2022/10/27 10:42:42;;;;;;;6.63;1.38;;;;;;;17.87;62.79;101876.81;5036562;28;22051;-64
2022/10/27 10:45:17;;;;;;;7.18;1.42;;;;;;;17.90;62.65;101865.88;5039396;28;20469;-64
2022/10/27 10:47:46;;;;;;;6.90;1.60;;;;;;;17.89;62.99;101863.38;5042617;28;20036;-64
2022/10/27 10:50:13;;;;;;;4.47;1.70;;;;;;;17.91;63.06;101866.72;5047255;28;20026;-64
2022/10/27 10:52:48;;;;;;;6.15;1.45;;;;;;;17.92;63.37;101865.63;5047846;28;20129;-64
2022/10/27 10:55:22;;;;;;;4.47;1.60;;;;;;;17.93;62.95;101861.69;5042941;28;20433;-64
2022/10/27 10:57:52;;;;;;;4.78;1.25;;;;;;;17.96;63.17;101865.88;5049323;28;20033;-64
2022/10/27 11:00:19;;;;;;;4.45;1.65;;;;;;;17.93;63.45;101860.84;5045205;28;20025;-64
2022/10/27 11:02:53;;;;;;;4.95;1.40;;;;;;;17.91;63.87;101863.91;5035757;28;20048;-64
2022/10/27 11:05:24;;;;;;;7.47;2.00;;;;;;;17.92;63.90;101865.63;5043696;28;20510;-64
2022/10/27 11:07:50;;;;;;;9.90;1.70;;;;;;;17.99;64.38;101868.13;5036798;28;20025;-64
2022/10/27 11:10:20;;;;;;;7.32;1.40;;;;;;;18.03;64.01;101870.09;5045732;28;20041;-64
2022/10/27 11:12:55;;;;;;;6.60;1.65;;;;;;;18.05;64.18;101858.63;5042048;28;20477;-64
2022/10/27 11:15:28;;;;;;;5.53;1.50;;;;;;;18.10;64.17;101872.66;5045980;28;20131;-64
2022/10/27 11:18:09;;;;;;;9.43;2.08;;;;;;;18.15;64.12;101861.41;5033291;28;20460;-65
2022/10/27 11:20:36;;;;;;;5.97;1.80;;;;;;;18.18;64.86;101858.06;5051789;28;20503;-63
2022/10/27 11:23:17;;;;;;;10.27;1.77;;;;;;;18.22;64.83;101855.53;5037147;28;20160;-65
2022/10/27 11:25:44;;;;;;;81.25;62.22;;;;;;;18.19;64.27;101858.88;5040048;28;20030;-65
2022/10/27 11:28:21;;;;;;;67.50;50.63;;;;;;;18.19;64.29;101853.28;5034163;28;20104;-65
2022/10/27 11:30:57;;;;;;;52.35;38.03;;;;;;;18.19;64.64;101862.53;5045412;28;20120;-64
2022/10/27 11:33:25;;;;;;;21.13;13.40;;;;;;;18.14;64.45;101848.50;5051704;28;20135;-65